Latest Weather Observations for Glen Innes Airport

IDN60801

Issued at 7:32 pm EST Wednesday 12 August 2020 (issued every 10 minutes, with the page automatically refreshed every 10 minutes)

About weather observations | Map of weather stations | Latest weather observations for NSW | Other Formats
Station Details ID: 056243 Name: GLEN INNES AIRPORT AWS Lat: -29.68 Lon: 151.69 Height: 1044.3 m
Data from the previous 72 hours. | See also: Recent months at Glen Innes Airport
Date/Time
EST
Temp
°C
App
Temp
°C
Dew
Point
°C
Rel
Hum
%
Delta-T
°C
Wind Press
QNH
hPa
Press
MSL
hPa
Rain since
9am
mm
Dir  Spd
km/h
Gust
km/h
Spd
kts
Gust
kts
12/07:30pm 7.8 6.2 4.7 81 1.5 NNW 2 7 1 4 1017.8 1018.0 0.0
12/07:00pm 10.5 7.7 6.8 78 1.9 NNW 11 13 6 7 1017.4 1017.5 0.0
12/06:30pm 10.5 8.1 6.8 78 1.9 NW 9 11 5 6 1017.4 1017.5 0.0
12/06:00pm 10.7 8.2 6.5 75 2.1 NW 9 11 5 6 1017.1 1017.2 0.0
12/05:30pm 10.9 7.9 5.9 71 2.5 NW 11 15 6 8 1017.0 1017.1 0.0
12/05:00pm 13.2 9.1 6.3 63 3.5 NNW 17 20 9 11 1016.6 1016.7 0.0
12/04:30pm 14.1 9.4 6.2 59 4.0 NNW 20 26 11 14 1016.3 1016.4 0.0
12/04:00pm 15.2 9.8 6.5 56 4.5 NW 24 32 13 17 1016.3 1016.4 0.0
12/03:30pm 14.1 7.8 5.7 57 4.2 NW 28 39 15 21 1016.2 1016.3 0.0
12/03:00pm 15.6 9.8 6.1 53 4.9 NW 26 35 14 19 1016.1 1016.2 0.0
12/02:30pm 16.7 11.8 6.8 52 5.2 NNW 22 33 12 18 1016.3 1016.4 0.0
12/02:00pm 16.0 10.2 6.2 52 5.0 NNW 26 35 14 19 1016.5 1016.6 0.0
12/01:30pm 16.1 10.0 6.8 54 4.8 NW 28 39 15 21 1017.0 1017.1 0.0
12/01:00pm 14.8 9.6 7.4 61 3.9 NW 24 33 13 18 1017.4 1017.5 0.0
12/12:30pm 15.1 9.1 7.2 59 4.1 NW 28 37 15 20 1017.9 1018.1 0.0
12/12:00pm 15.1 9.1 6.9 58 4.2 NNW 28 39 15 21 1018.5 1018.7 0.0
12/11:30am 13.7 7.7 7.0 64 3.4 NNW 28 37 15 20 1019.1 1019.2 0.0
12/11:00am 12.6 6.3 7.3 70 2.7 NW 30 37 16 20 1019.7 1019.9 0.0
12/10:30am 12.2 6.3 7.5 73 2.4 NNW 28 35 15 19 1020.2 1020.4 0.0
12/10:03am 11.3 5.8 7.6 78 1.9 NNW 26 35 14 19 1020.6 1020.8 0.0
12/10:00am 11.4 5.9 7.5 77 2.0 NNW 26 35 14 19 1020.6 1020.8 0.0
12/09:30am 12.0 7.7 9.2 83 1.5 NNW 22 28 12 15 1020.7 1020.9 0.0
12/09:00am 9.8 6.9 8.2 90 0.8 NNW 13 28 7 15 1021.0 1021.3 0.0
12/08:30am 9.1 7.0 8.3 95 0.4 N 9 11 5 6 1021.2 1021.4 0.0
12/08:24am 8.8 6.7 8.2 96 0.3 N 9 11 5 6 1021.3 1021.5 0.0
12/08:00am 8.0 6.1 7.6 97 0.2 NNE 7 9 4 5 1021.0 1021.3 0.0
12/07:30am 7.6 7.0 7.3 98 0.1 CALM 0 0 0 0 1020.7 1020.9 0.0
12/07:19am 7.5 6.9 7.2 98 0.1 CALM 0 0 0 0 1020.7 1020.9 0.0
12/07:00am 7.3 6.7 7.2 99 0.0 CALM 0 0 0 0 1020.4 1020.6 0.0
12/06:52am 7.1 6.4 7.0 99 0.0 CALM 0 0 0 0 1020.4 1020.6 0.0
12/06:30am 6.9 6.2 6.8 99 0.0 CALM 0 0 0 0 1020.2 1020.4 0.0
12/06:00am 6.8 5.3 6.8 100 0.0 NE 4 6 2 3 1019.7 1019.9 0.0
12/05:30am 6.5 4.4 6.5 100 0.0 ESE 7 9 4 5 1019.3 1019.5 0.0
12/05:00am 5.8 3.7 5.7 99 0.0 SE 6 7 3 4 1018.9 1019.1 0.0
12/04:30am 5.3 3.1 5.2 99 0.0 SE 6 7 3 4 1018.8 1019.0 0.0
12/04:00am 5.3 4.2 5.2 99 0.0 CALM 0 0 0 0 1019.1 1019.2 0.0
12/03:30am 4.5 1.6 4.4 99 0.0 SE 9 9 5 5 1018.9 1019.1 0.0
12/03:01am 4.9 2.4 4.8 99 0.0 ESE 7 9 4 5 1019.1 1019.2 0.0
12/03:00am 4.9 2.4 4.8 99 0.0 ESE 7 9 4 5 1019.1 1019.2 0.0
12/02:30am 5.2 2.8 5.1 99 0.0 ESE 7 7 4 4 1019.5 1019.7 0.0
12/02:18am 5.1 2.8 5.0 99 0.0 ESE 6 9 3 5 1019.6 1019.8 0.0
12/02:00am 4.7 2.1 4.4 98 0.1 ESE 7 9 4 5 1019.7 1019.9 0.0
12/01:58am 4.6 2.0 4.3 98 0.1 ESE 7 9 4 5 1019.6 1019.8 0.0
12/01:40am 4.2 1.5 3.9 98 0.1 ESE 7 9 4 5 1019.8 1020.0 0.0
12/01:30am 4.6 2.0 4.3 98 0.1 ESE 7 9 4 5 1019.9 1020.1 0.0
12/01:00am 4.7 2.1 4.4 98 0.1 SE 7 9 4 5 1019.9 1020.1 0.0
12/12:30am 4.0 0.9 3.6 97 0.2 SE 9 11 5 6 1020.0 1020.3 0.0
12/12:00am 4.9 2.0 4.6 98 0.1 SSE 9 11 5 6 1019.9 1020.1 0.0
 
Date/Time
EST
Temp
°C
App
Temp
°C
Dew
Point
°C
Rel
Hum
%
Delta-T
°C
Wind Press
QNH
hPa
Press
MSL
hPa
Rain since
9am
mm
Dir  Spd
km/h
Gust
km/h
Spd
kts
Gust
kts
11/11:30pm 4.7 1.7 4.1 96 0.3 SE 9 11 5 6 1019.8 1020.0 0.0
11/11:00pm 5.5 2.2 4.6 94 0.4 ESE 11 13 6 7 1019.7 1019.9 0.0
11/10:30pm 6.2 3.0 5.3 94 0.4 ESE 11 13 6 7 1019.7 1019.9 0.0
11/10:00pm 6.8 3.8 5.9 94 0.4 ESE 11 13 6 7 1019.8 1020.0 0.0
11/09:30pm 6.6 3.2 5.7 94 0.4 ESE 13 13 7 7 1020.0 1020.3 0.0
11/09:00pm 5.7 2.7 3.9 88 0.8 E 9 9 5 5 1019.9 1020.1 0.0
11/08:30pm 7.2 4.4 5.0 86 1.0 E 9 11 5 6 1019.8 1020.0 0.0
11/08:00pm 8.0 4.5 5.5 84 1.2 E 13 15 7 8 1019.8 1020.0 0.0
11/07:30pm 8.9 6.2 5.6 80 1.6 SE 9 11 5 6 1019.6 1019.8 0.0
11/07:00pm 10.8 8.7 6.0 72 2.4 ESE 6 7 3 4 1019.3 1019.5 0.0
11/06:30pm 8.7 6.6 5.6 81 1.5 ENE 6 9 3 5 1019.1 1019.2 0.0
11/06:00pm 9.6 7.2 5.4 75 2.0 W 7 9 4 5 1018.6 1018.8 0.0
11/05:30pm 10.6 7.4 4.9 68 2.7 WSW 11 13 6 7 1018.4 1018.6 0.0
11/05:00pm 12.9 9.5 5.8 62 3.5 W 13 15 7 8 1018.3 1018.4 0.0
11/04:30pm 13.6 9.1 6.0 60 3.8 W 19 22 10 12 1017.9 1018.1 0.0
11/04:00pm 14.4 11.9 3.8 49 5.1 NW 6 7 3 4 1017.6 1017.8 0.0
11/03:30pm 15.7 12.5 3.2 43 6.0 WNW 9 20 5 11 1017.7 1017.9 0.0
11/03:00pm 15.6 13.2 4.3 47 5.6 E 6 9 3 5 1017.8 1018.0 0.0
11/02:30pm 14.2 11.2 3.9 50 5.0 NNE 9 11 5 6 1017.9 1018.1 0.0
11/02:00pm 14.6 11.1 3.4 47 5.4 NNE 11 17 6 9 1018.1 1018.2 0.0
11/01:30pm 15.3 12.4 2.8 43 6.0 SSE 7 9 4 5 1018.3 1018.4 0.0
11/01:00pm 15.5 12.4 3.6 45 5.8 NNE 9 15 5 8 1018.6 1018.8 0.0
11/12:30pm 14.8 11.0 3.9 48 5.3 E 13 20 7 11 1018.7 1018.9 0.0
11/12:00pm 14.1 9.9 3.8 50 5.0 E 15 26 8 14 1019.2 1019.3 0.0
11/11:30am 13.6 9.2 4.5 54 4.4 ESE 17 24 9 13 1019.6 1019.8 0.0
11/11:00am 13.5 8.2 5.2 57 4.1 ESE 22 32 12 17 1019.6 1019.8 0.0
11/10:30am 12.5 6.0 4.7 59 3.8 ESE 28 33 15 18 1020.2 1020.4 0.0
11/10:00am 11.7 4.8 4.4 61 3.5 ESE 30 37 16 20 1020.3 1020.5 0.0
11/09:30am 10.8 4.7 4.7 66 2.9 SE 26 35 14 19 1020.3 1020.5 0.0
11/09:00am 9.3 3.6 5.1 75 2.0 SE 24 33 13 18 1020.3 1020.5 0.6
11/08:30am 8.0 2.2 4.2 77 1.8 SE 24 32 13 17 1020.3 1020.5 0.6
11/08:00am 6.9 0.2 3.5 79 1.5 SE 28 35 15 19 1020.0 1020.3 0.6
11/07:30am 5.9 -0.1 3.6 85 1.0 SE 24 33 13 18 1019.6 1019.8 0.6
11/07:00am 4.8 -1.2 3.1 89 0.7 SE 24 33 13 18 1019.3 1019.5 0.6
11/06:30am 4.2 -1.5 3.0 92 0.5 SE 22 30 12 16 1019.1 1019.2 0.6
11/06:00am 3.7 -1.7 2.5 92 0.5 SE 20 24 11 13 1018.5 1018.7 0.6
11/05:30am 3.6 -1.6 2.6 93 0.4 ESE 19 24 10 13 1017.9 1018.1 0.6
11/05:00am 3.5 -1.6 2.8 95 0.3 SE 19 28 10 15 1017.3 1017.4 0.4
11/04:30am 1.4 -4.0 1.0 97 0.2 ESE 19 20 10 11 1017.1 1017.2 0.4
11/04:00am 0.4 -4.0 0.1 98 0.1 ESE 13 15 7 8 1017.1 1017.2 0.4
11/03:30am 0.0 -3.8 -0.4 97 0.2 SE 9 13 5 7 1017.1 1017.2 0.4
11/03:00am 0.2 -1.8 -0.1 98 0.1 CALM 0 4 0 2 1017.1 1017.2 0.4
11/02:30am -1.4 -5.0 -2.2 94 0.2 S 7 9 4 5 1017.0 1017.1 0.4
11/02:00am -0.2 -2.7 -1.0 94 0.3 S 2 6 1 3 1017.5 1017.6 0.4
11/01:30am 0.2 -2.4 -1.4 89 0.6 S 2 6 1 3 1017.5 1017.6 0.4
11/01:00am 1.9 -0.7 0.9 93 0.4 S 4 6 2 3 1017.4 1017.5 0.4
11/12:30am 2.8 -0.3 1.5 91 0.5 SSW 7 7 4 4 1017.6 1017.8 0.4
11/12:00am 3.8 1.0 1.8 87 0.8 SSW 6 7 3 4 1017.7 1017.9 0.4
 
Date/Time
EST
Temp
°C
App
Temp
°C
Dew
Point
°C
Rel
Hum
%
Delta-T
°C
Wind Press
QNH
hPa
Press
MSL
hPa
Rain since
9am
mm
Dir  Spd
km/h
Gust
km/h
Spd
kts
Gust
kts
10/11:30pm 3.6 -0.6 1.5 86 0.9 S 13 17 7 9 1017.8 1018.0 0.4
10/11:00pm 4.8 2.0 2.0 82 1.2 SW 6 11 3 6 1017.8 1018.0 0.4
10/10:30pm 5.4 0.2 2.4 81 1.3 S 19 28 10 15 1017.3 1017.4 0.4
10/10:00pm 5.0 -0.4 2.4 83 1.1 S 20 30 11 16 1017.4 1017.5 0.4
10/09:30pm 5.0 0.9 2.4 83 1.1 S 13 17 7 9 1017.5 1017.6 0.4
10/09:00pm 4.7 -0.2 1.9 82 1.2 S 17 24 9 13 1017.3 1017.4 0.4
10/08:30pm 5.8 0.1 2.8 81 1.3 S 22 33 12 18 1017.1 1017.2 0.4
10/08:00pm 5.2 0.8 2.9 85 1.0 S 15 22 8 12 1017.0 1017.1 0.4
10/07:30pm 4.9 0.8 2.4 84 1.1 SW 13 19 7 10 1017.2 1017.3 0.4
10/07:00pm 6.1 0.9 3.4 83 1.2 SSW 20 26 11 14 1017.1 1017.2 0.4
10/06:35pm 7.2 3.2 6.6 96 0.3 SSW 17 26 9 14 1016.6 1016.7 0.4
10/06:30pm 7.2 2.8 6.6 96 0.3 SSW 19 26 10 14 1016.4 1016.5 0.4
10/06:10pm 7.1 3.9 6.7 97 0.2 WSW 13 17 7 9 1015.8 1015.9 0.2
10/06:04pm 7.1 4.2 6.7 97 0.2 WSW 11 17 6 9 1015.7 1015.8 0.2
10/06:00pm 7.1 4.2 6.7 97 0.2 WSW 11 13 6 7 1015.6 1015.7 0.2
10/05:48pm 7.1 3.9 6.7 97 0.2 WSW 13 17 7 9 1015.5 1015.6 0.2
10/05:30pm 7.2 3.9 6.5 95 0.3 SW 13 20 7 11 1015.1 1015.2 0.2
10/05:11pm 7.1 3.0 6.0 93 0.5 SW 17 20 9 11 1014.8 1014.9 0.2
10/05:00pm 7.7 3.3 6.5 92 0.6 SW 19 28 10 15 1014.7 1014.8 0.0
10/04:30pm 8.7 3.6 6.0 83 1.3 WSW 22 30 12 16 1014.3 1014.4 0.0
10/04:00pm 9.0 3.9 6.1 82 1.4 WSW 22 28 12 15 1013.9 1013.9 0.0
10/03:30pm 9.0 3.8 5.6 79 1.6 WSW 22 30 12 16 1013.3 1013.3 0.0
10/03:00pm 8.7 3.9 5.4 80 1.6 WSW 20 28 11 15 1013.1 1013.1 0.0
10/02:30pm 9.1 3.8 5.1 76 1.9 WSW 22 32 12 17 1013.0 1013.0 0.0
10/02:00pm 8.7 3.0 4.7 76 1.9 SW 24 35 13 19 1013.0 1013.0 0.0
10/01:30pm 9.7 2.7 4.3 69 2.5 SSW 30 37 16 20 1012.5 1012.5 0.0
10/01:00pm 9.8 3.8 5.4 74 2.1 SSW 26 39 14 21 1012.3 1012.3 0.0
10/12:30pm 8.9 2.7 4.1 72 2.2 WSW 26 35 14 19 1012.3 1012.3 0.0
10/12:00pm 9.2 3.7 4.0 70 2.4 SW 22 33 12 18 1012.4 1012.4 0.0
10/11:30am 8.0 2.3 3.1 71 2.2 SW 22 32 12 17 1012.7 1012.8 0.0
10/11:00am 8.2 1.4 3.3 71 2.2 SW 28 39 15 21 1012.5 1012.5 0.0
10/10:44am 7.1 1.9 3.5 78 1.6 SW 20 32 11 17 1012.5 1012.5 0.0
10/10:30am 6.4 0.9 3.9 84 1.1 WSW 22 32 12 17 1012.6 1012.7 0.0
10/10:00am 5.5 -0.8 3.7 88 0.8 WSW 26 33 14 18 1012.5 1012.5 0.0
10/09:30am 4.5 -2.3 3.0 90 0.7 WSW 28 39 15 21 1012.3 1012.3 0.0
10/09:00am 4.2 -2.1 3.6 96 0.3 WSW 26 35 14 19 1012.0 1012.0 3.4
10/08:30am 3.5 -2.5 3.1 97 0.2 WSW 24 33 13 18 1011.7 1011.8 3.4
10/08:29am 3.5 -2.5 3.1 97 0.2 WSW 24 33 13 18 1011.7 1011.8 3.4
10/08:00am 3.0 -2.7 2.7 98 0.1 W 22 32 12 17 1011.5 1011.5 3.4
10/07:36am 2.7 -2.7 2.4 98 0.1 WSW 20 28 11 15 1011.3 1011.3 3.4
10/07:30am 2.6 -3.6 2.3 98 0.1 W 24 33 13 18 1011.1 1011.1 3.4
10/07:00am 2.4 -4.2 2.1 98 0.1 W 26 35 14 19 1010.5 1010.5 3.4
10/06:58am 2.4 -4.2 2.1 98 0.1 W 26 35 14 19 1010.5 1010.5 3.4
10/06:30am 2.3 -5.5 2.0 98 0.1 W 32 44 17 24 1010.1 1010.1 3.4
10/06:00am 2.3 -5.5 2.0 98 0.1 W 32 41 17 22 1009.9 1009.8 3.2
10/05:30am 2.3 -4.3 2.0 98 0.1 W 26 35 14 19 1009.9 1009.8 3.2
10/05:00am 2.3 -5.1 2.0 98 0.1 W 30 46 16 25 1009.3 1009.3 3.0
10/04:48am 2.4 -5.5 2.0 97 0.2 W 33 44 18 24 1009.4 1009.4 2.8
10/04:30am 2.4 -4.6 2.0 97 0.2 W 28 37 15 20 1009.6 1009.6 2.8
10/04:24am 2.3 -5.7 1.9 97 0.2 W 33 52 18 28 1009.5 1009.5 2.8
10/04:23am 2.3 -5.7 1.9 97 0.2 W 33 52 18 28 1009.5 1009.5 2.8
10/04:07am 2.3 -6.1 1.7 96 0.2 W 35 46 19 25 1009.6 1009.6 2.6
10/04:00am 2.3 -5.5 1.7 96 0.2 W 32 43 17 23 1009.8 1009.7 2.6
10/03:30am 2.4 -5.1 1.4 93 0.4 WNW 30 41 16 22 1009.9 1009.8 2.4
10/03:00am 2.5 -4.9 1.6 94 0.4 W 30 39 16 21 1009.9 1009.8 2.4
10/02:30am 2.6 -5.2 1.6 93 0.4 W 32 46 17 25 1010.2 1010.2 2.4
10/02:00am 2.6 -4.8 1.6 93 0.4 W 30 41 16 22 1010.3 1010.3 2.4
10/01:30am 2.7 -4.7 1.7 93 0.4 W 30 41 16 22 1010.4 1010.4 2.4
10/01:00am 2.9 -4.5 1.9 93 0.4 W 30 46 16 25 1010.8 1010.7 2.4
10/12:30am 3.0 -3.6 2.0 93 0.4 W 26 33 14 18 1011.1 1011.1 2.4
10/12:00am 3.0 -3.6 2.1 94 0.4 W 26 37 14 20 1011.3 1011.3 2.4
 
Date/Time
EST
Temp
°C
App
Temp
°C
Dew
Point
°C
Rel
Hum
%
Delta-T
°C
Wind Press
QNH
hPa
Press
MSL
hPa
Rain since
9am
mm
Dir  Spd
km/h
Gust
km/h
Spd
kts
Gust
kts
09/11:30pm 3.2 -3.7 2.5 95 0.3 W 28 37 15 20 1011.2 1011.2 2.4
09/11:00pm 3.2 -3.7 2.6 96 0.3 W 28 35 15 19 1011.3 1011.3 2.4
09/10:30pm 3.3 -3.2 2.7 96 0.3 W 26 39 14 21 1011.7 1011.8 2.2
09/10:00pm 3.2 -4.1 2.5 95 0.3 W 30 39 16 21 1011.9 1011.9 2.2
09/09:30pm 2.6 -5.2 2.0 96 0.3 W 32 43 17 23 1012.1 1012.1 2.2
09/09:00pm 3.6 -4.0 2.7 94 0.4 W 32 44 17 24 1011.9 1011.9 0.8
09/08:31pm 3.8 -4.5 2.3 90 0.6 W 35 54 19 29 1011.9 1011.9 0.8
09/08:30pm 3.8 -4.9 2.3 90 0.6 W 37 54 20 29 1012.0 1012.0 0.8
09/08:25pm 3.8 -4.5 2.2 89 0.7 WNW 35 54 19 29 1012.0 1012.0 0.8
09/08:00pm 3.8 -3.9 2.5 91 0.6 W 32 43 17 23 1012.1 1012.1 0.8

Other formats

Comma delimited format used in spreadsheet applications
http://www.bom.gov.au/fwo/IDN60801/IDN60801.94588.axf

JavaScript Object Notation format (JSON) in row-major order
http://www.bom.gov.au/fwo/IDN60801/IDN60801.94588.json

Data quality

Most of these data are generated automatically and are frequently updated. Quality checks on data are not normally performed. It is possible for incorrect values to appear. Refer to information at About Latest Weather Observations and please check the disclaimer before using these data.